Last Month

Pierce College

Hourly Data | America/Los_Angeles
as of 5/23/22 8:35 AM PDT
Date & Time Temp Max (°F) Temp Min (°F) RH (%) Dew Pt (°F) Latest Rain (In) Soil Temp (°F) Soil Moist (%) Wind Spd (mph) Wind Dir (°) Wind Gust (mph) Leaf Wet Raw (mV) Net Radiation (W/m²) Evap Pan Max Wind (mph) Evap Pan H2O Max Temp (°F) Evap Pan Level (In)
4/30/22 - 2300 59.6 56.7 63 45.9 0.00 70.6 31.2 0.7 S | 188 2.5 269 -67 0.3 53.3 3.8
4/30/22 - 2200 62.7 59.4 58 46.2 0.00 71.0 31.2 0.4 SE | 139 2.7 268 -74 2.3 59.2 3.8
4/30/22 - 2100 68.7 62.5 50 46.2 0.00 70.6 31.2 1.0 E | 99 4.1 266 -83 2.4 64.2 3.8
4/30/22 - 2000 76.5 68.5 37 44.2 0.00 70.5 31.1 0.7 E | 80 3.2 266 -82 1.4 75.0 3.8
4/30/22 - 1900 81.4 76.4 23 37.9 0.00 70.3 31.1 2.7 SSW | 208 6.8 264 -8 3.6 83.6 3.8
4/30/22 - 1800 82.2 80.9 19 34.9 0.00 69.7 31.1 3.6 SW | 226 7.9 263 131 3.9 88.6 3.8
4/30/22 - 1700 83.9 81.9 21 38.7 0.00 69.4 31.0 4.5 SW | 229 9.2 263 295 4.4 96.4 3.8
4/30/22 - 1600 86.7 83.0 23 43.3 0.00 69.1 31.0 3.9 WSW | 242 10.0 263 444 5.2 108.3 3.8
4/30/22 - 1500 88.2 84.8 23 44.1 0.00 68.9 31.0 2.7 W | 276 10.3 263 519 5.1 119.9 3.8
4/30/22 - 1400 88.3 83.1 26 46.7 0.00 69.4 31.0 2.0 SE | 124 7.3 263 574 4.6 140.5 3.8
4/30/22 - 1300 85.0 82.0 22 40.7 0.00 68.2 31.0 2.2 S | 191 7.9 263 582 3.8 152.0 3.8
4/30/22 - 1200 82.7 78.2 22 38.0 0.00 68.2 31.0 2.3 SW | 218 8.0 262 522 4.6 146.3 3.8
4/30/22 - 1100 78.4 73.3 29 40.8 0.00 68.2 31.0 2.3 WSW | 258 6.9 263 399 3.3 120.6 3.8
4/30/22 - 1000 73.5 68.2 37 42.9 0.00 70.6 31.0 2.2 WSW | 242 5.0 264 312 2.6 115.5 3.8
4/30/22 - 0900 68.2 57.8 54 46.3 0.00 66.7 31.0 1.6 SW | 217 4.4 266 185 2.6 94.6 3.8
4/30/22 - 0800 57.7 51.0 89 50.4 0.00 68.0 31.0 0.1 ENE | 64 1.4 278 53 0.0 57.4 3.8
4/30/22 - 0700 51.3 49.2 92 47.6 0.00 69.1 31.0 0.1 S | 178 1.1 343 3 0.0 43.4 3.8
4/30/22 - 0600 50.5 49.3 91 47.3 0.00 71.0 31.1 0.2 SSE | 162 1.2 347 -15 0.0 42.4 3.8
4/30/22 - 0500 51.3 50.0 90 47.9 0.00 69.7 31.1 0.2 S | 174 1.4 340 -17 0.0 42.9 3.8
4/30/22 - 0400 52.2 50.4 89 48.3 0.00 68.7 31.1 0.4 S | 170 1.7 339 -19 0.0 42.8 3.8
4/30/22 - 0300 52.7 51.7 87 48.5 0.00 67.7 31.1 0.1 S | 169 1.0 319 -24 0.0 43.5 3.8
4/30/22 - 0200 54.7 52.4 84 49.0 0.00 68.2 31.2 0.4 SSE | 160 1.7 288 -35 0.0 44.8 3.8
4/30/22 - 0100 56.3 54.0 79 48.8 0.00 70.4 31.2 0.4 SSW | 192 1.7 268 -57 0.0 47.2 3.8
4/30/22 - 0000 58.2 55.9 74 48.7 0.00 72.0 31.2 0.3 S | 190 1.7 272 -61 0.0 49.8 3.8
4/29/22 - 2300 60.3 58.0 67 48.3 0.00 71.9 31.1 0.2 SSE | 168 1.0 271 -65 0.0 51.8 3.8
4/29/22 - 2200 62.9 59.8 60 47.0 0.00 70.6 31.1 0.7 SSW | 192 2.2 269 -70 0.0 55.1 3.8
4/29/22 - 2100 66.6 62.8 53 47.2 0.00 69.9 31.1 0.4 S | 184 1.6 268 -84 0.0 60.0 3.8
4/29/22 - 2000 74.7 66.5 40 45.3 0.00 69.4 31.1 0.4 SW | 220 2.8 266 -155 1.5 72.9 3.8
4/29/22 - 1900 77.5 74.6 38 48.6 0.00 69.2 31.1 0.8 NNE | 17 4.4 266 -77 2.1 81.0 3.8
4/29/22 - 1800 80.5 77.5 33 47.8 0.00 69.0 31.0 1.1 N | 350 5.0 265 71 2.5 85.9 3.8
4/29/22 - 1700 80.9 79.4 31 47.1 0.00 69.0 31.0 2.1 WNW | 292 7.8 264 228 5.0 91.5 3.8
4/29/22 - 1600 82.6 78.2 31 46.5 0.00 68.4 31.0 4.3 WSW | 238 9.7 264 342 4.7 101.7 3.8
4/29/22 - 1500 82.7 79.5 26 43.3 0.00 68.7 31.0 1.7 NE | 39 5.2 264 333 2.7 110.0 3.8
4/29/22 - 1400 80.0 74.9 29 43.2 0.00 68.1 31.0 1.5 NE | 34 5.1 264 398 3.4 128.9 3.8
4/29/22 - 1300 76.5 71.2 34 44.1 0.00 67.9 31.0 1.4 NNE | 18 4.5 264 397 3.3 132.9 3.8
4/29/22 - 1200 71.6 66.4 39 43.9 0.00 68.0 31.0 1.6 NNE | 30 5.2 264 328 3.4 128.5 3.8
4/29/22 - 1100 66.6 62.0 49 44.6 0.00 68.0 31.0 1.7 SSW | 199 6.1 264 245 2.7 105.4 3.8
4/29/22 - 1000 62.7 58.3 57 45.2 0.00 68.1 31.0 1.4 ENE | 64 3.7 265 321 2.2 101.7 3.8
4/29/22 - 0900 58.4 52.4 69 45.3 0.00 68.3 31.1 0.9 ESE | 109 3.3 266 201 1.6 84.9 3.8
4/29/22 - 0800 52.6 45.9 87 45.2 0.00 68.6 31.1 0.1 NNW | 330 2.2 286 52 0.0 54.3 3.8
4/29/22 - 0700 46.1 43.8 90 42.0 0.00 68.7 31.1 0.1 SSW | 199 1.9 349 -48 0.0 39.9 3.8
4/29/22 - 0600 45.6 43.7 89 41.6 0.00 68.8 31.2 0.6 S | 172 2.4 346 -129 0.0 37.9 3.8
4/29/22 - 0500 46.5 45.0 87 42.2 0.00 68.9 31.2 0.9 SSW | 200 2.6 329 -138 0.4 38.0 3.8
4/29/22 - 0400 47.3 45.9 86 42.5 0.00 69.6 31.2 0.6 S | 177 2.5 306 -154 0.3 38.8 3.8
4/29/22 - 0300 48.0 46.8 84 42.8 0.00 69.0 31.2 0.8 S | 189 3.3 284 -158 0.0 40.0 3.8
4/29/22 - 0200 49.5 47.2 82 43.0 0.00 70.8 31.3 0.9 S | 183 2.9 272 -164 0.8 41.2 3.8
4/29/22 - 0100 50.8 48.9 79 43.5 0.00 70.4 31.3 0.4 S | 179 1.5 271 -128 0.0 42.1 3.8
4/29/22 - 0000 52.1 50.4 74 43.3 0.00 68.4 31.3 1.0 S | 187 2.8 272 -97 0.8 44.2 3.8
4/28/22 - 2300 54.2 51.7 70 43.4 0.00 69.5 31.3 0.7 SSW | 192 2.3 271 -98 0.0 47.0 3.8
4/28/22 - 2200 57.1 54.0 64 43.3 0.00 69.7 31.3 0.8 SSW | 196 2.8 269 -114 0.4 52.2 3.8
4/28/22 - 2100 60.2 57.0 56 43.0 0.00 68.5 31.4 1.1 WSW | 240 4.4 269 -135 2.5 58.6 3.8
4/28/22 - 2000 63.0 59.9 52 43.9 0.00 67.5 31.3 1.9 W | 264 6.4 268 -130 3.3 65.5 3.8
4/28/22 - 1900 66.5 62.9 49 44.9 0.00 67.6 31.3 3.8 SW | 219 7.8 267 -39 3.5 72.2 3.8
4/28/22 - 1800 68.5 66.2 46 45.8 0.00 68.9 31.3 4.0 SW | 228 10.3 266 118 3.9 78.8 3.8
4/28/22 - 1700 68.8 66.3 46 46.1 0.00 69.7 31.3 4.5 SW | 217 11.0 266 267 5.2 85.6 3.8
4/28/22 - 1600 69.7 66.7 47 47.0 0.00 69.1 31.3 3.6 SSW | 196 9.5 266 284 4.6 99.1 3.8
4/28/22 - 1500 68.9 66.0 48 47.2 0.00 71.0 31.3 4.5 SSW | 206 9.8 266 544 4.6 101.8 3.8
4/28/22 - 1400 67.6 65.5 48 45.9 0.00 70.0 31.3 2.4 SSE | 166 6.9 266 193 3.4 98.3 3.8
4/28/22 - 1300 66.4 63.5 50 45.8 0.00 71.7 31.3 2.4 SE | 130 7.0 266 222 3.8 105.2 3.8
4/28/22 - 1200 65.9 60.4 56 46.8 0.00 72.0 31.3 2.8 S | 174 8.3 266 265 3.9 110.1 3.8
4/28/22 - 1100 61.4 59.9 61 47.0 0.00 68.9 31.3 2.5 S | 177 6.7 268 36 3.1 78.2 3.8
4/28/22 - 1000 61.2 58.5 63 47.6 0.00 70.8 31.4 1.0 ESE | 117 4.6 268 74 2.2 77.0 3.8
4/28/22 - 0900 59.5 56.1 69 48.1 0.00 67.2 31.3 1.5 ESE | 105 5.5 269 60 2.5 75.0 3.8
4/28/22 - 0800 56.3 54.7 79 48.9 0.00 69.6 31.4 2.2 ESE | 110 5.9 270 -31 4.0 63.4 3.8
4/28/22 - 0700 56.3 54.8 78 48.9 0.00 70.1 31.4 1.3 ENE | 68 4.1 271 -81 2.0 59.6 3.8
4/28/22 - 0600 56.2 55.4 74 47.7 0.00 70.3 31.4 1.7 S | 178 3.8 271 -94 1.9 59.5 3.8
4/28/22 - 0500 56.2 55.6 75 48.1 0.00 70.1 31.4 1.5 SE | 140 5.6 271 -96 3.8 59.4 3.8
4/28/22 - 0400 56.1 55.0 78 48.7 0.00 70.5 31.4 0.3 SSW | 193 2.4 271 -99 0.2 58.6 3.8
4/28/22 - 0300 55.1 52.6 82 49.1 0.00 69.1 31.4 0.9 SSE | 149 3.5 271 -82 0.7 57.2 3.8
4/28/22 - 0200 52.9 51.7 85 48.0 0.00 68.5 31.4 0.3 SE | 138 1.8 271 -97 0.0 46.6 3.8
4/28/22 - 0100 54.7 52.7 81 47.7 0.00 70.4 31.4 0.2 S | 179 1.4 269 -118 0.0 47.2 3.8
4/28/22 - 0000 55.6 54.1 74 46.8 0.00 71.2 31.4 0.6 S | 187 2.0 272 -112 0.0 50.2 3.8
4/27/22 - 2300 58.0 55.0 68 45.9 0.00 72.8 31.4 0.7 SSW | 198 2.4 270 -107 0.4 54.4 3.8
4/27/22 - 2200 59.3 58.0 64 46.5 0.00 72.7 31.4 1.4 SSW | 192 4.0 269 -125 1.6 56.4 3.8
4/27/22 - 2100 62.1 59.3 61 47.2 0.00 71.8 31.4 1.7 SSW | 211 3.8 269 -124 1.6 62.1 3.8
4/27/22 - 2000 66.1 62.1 56 48.0 0.00 70.7 31.4 1.2 WNW | 297 5.0 268 -122 3.3 69.6 3.8
4/27/22 - 1900 69.3 66.0 51 48.8 0.00 69.8 31.4 2.3 WSW | 256 8.8 266 -30 4.9 76.9 3.8
4/27/22 - 1800 70.2 68.2 50 49.8 0.00 69.1 31.4 3.5 SSE | 168 8.4 266 103 3.7 81.5 3.8
4/27/22 - 1700 72.1 69.7 48 50.2 0.00 69.6 31.4 4.5 SSE | 166 9.0 266 282 4.6 87.9 3.8
4/27/22 - 1600 73.5 71.3 46 50.2 0.00 69.6 31.3 4.6 S | 170 9.4 266 412 4.2 95.9 3.8
4/27/22 - 1500 75.2 71.1 45 50.2 0.00 69.2 31.3 4.5 SSE | 165 11.3 265 510 4.9 104.9 3.8
4/27/22 - 1400 76.7 71.6 40 48.6 0.00 68.9 31.3 2.4 S | 182 7.6 264 532 4.0 125.5 3.8
4/27/22 - 1300 73.5 70.5 43 48.6 0.00 68.7 31.2 1.8 E | 101 5.8 264 565 3.6 129.3 3.8
4/27/22 - 1200 70.9 66.7 48 48.6 0.00 68.3 31.3 2.0 ENE | 74 6.4 265 437 4.1 125.8 3.8
4/27/22 - 1100 68.0 64.1 54 48.6 0.00 66.0 31.3 2.0 E | 83 7.5 265 354 5.5 103.1 3.8
4/27/22 - 1000 64.9 59.4 63 48.4 0.00 66.5 31.3 2.6 ESE | 117 6.3 266 46 3.6 97.6 3.8
4/27/22 - 0900 60.3 56.9 68 47.9 0.00 66.3 31.3 1.8 E | 89 5.4 269 -52 4.2 71.5 3.8
4/27/22 - 0800 57.2 55.0 74 48.3 0.00 67.2 31.3 2.0 E | 98 7.0 270 -167 3.7 61.7 3.8
4/27/22 - 0700 55.1 50.3 86 48.0 0.00 69.1 31.4 0.2 ESE | 111 3.7 271 -169 2.1 56.0 3.8
4/27/22 - 0600 51.1 50.2 85 46.1 0.00 71.2 31.4 0.4 S | 190 2.1 282 -231 0.0 43.8 3.8
4/27/22 - 0500 53.4 50.6 78 45.3 0.00 72.7 31.4 0.2 S | 182 1.6 269 -120 0.0 44.8 3.8
4/27/22 - 0400 54.3 52.2 71 44.1 0.00 70.1 31.4 1.2 S | 185 4.0 271 -119 0.9 45.2 3.8
4/27/22 - 0300 57.1 52.8 71 45.1 0.00 70.2 31.4 0.5 S | 184 2.0 271 -157 0.0 48.5 3.8
4/27/22 - 0200 58.2 56.2 63 44.8 0.00 70.1 31.4 0.6 ESE | 102 3.7 269 -185 1.3 49.4 3.8
4/27/22 - 0100 59.2 56.6 56 42.5 0.00 70.2 31.4 0.7 S | 181 2.6 268 -202 0.0 54.2 3.8
4/27/22 - 0000 64.0 59.1 48 41.9 0.00 70.1 31.4 2.5 SSW | 202 9.3 266 -227 3.1 58.8 3.8
4/26/22 - 2300 65.8 63.8 44 42.7 0.00 70.2 31.4 2.2 S | 186 5.8 266 -201 2.4 64.5 3.8
4/26/22 - 2200 66.4 65.0 46 43.9 0.00 69.9 31.4 2.0 SSW | 199 5.7 266 -190 3.4 63.3 3.8
4/26/22 - 2100 68.9 66.3 43 44.3 0.00 69.9 31.3 2.6 SSW | 209 8.5 266 -222 4.4 65.7 3.8
4/26/22 - 2000 72.3 68.7 31 37.5 0.00 70.0 31.3 2.3 SSW | 200 5.1 264 -201 2.4 73.3 3.8
4/26/22 - 1900 76.2 72.2 22 33.0 0.00 69.9 31.3 2.1 S | 176 5.7 263 -195 2.8 83.5 3.8
4/26/22 - 1800 77.3 75.1 21 33.5 0.00 69.7 31.3 3.5 S | 175 7.5 262 -74 3.1 85.2 3.8
4/26/22 - 1700 80.0 76.5 18 31.7 0.00 69.3 31.2 4.2 S | 174 8.1 263 13 4.6 91.9 3.8
4/26/22 - 1600 81.9 79.2 16 30.0 0.00 68.8 31.2 4.9 SSW | 198 10.6 262 230 5.4 101.0 3.8
4/26/22 - 1500 82.7 80.6 15 28.8 0.00 68.7 31.2 4.5 S | 184 9.7 262 362 4.9 121.4 3.8
4/26/22 - 1400 83.6 81.5 13 26.8 0.00 68.7 31.2 3.6 SSE | 163 9.4 262 421 5.9 144.9 3.8
4/26/22 - 1300 83.9 80.3 21 37.7 0.00 68.3 31.2 2.4 NE | 54 9.2 262 497 4.1 151.4 3.8
4/26/22 - 1200 82.8 74.7 25 39.8 0.00 68.7 31.1 1.4 NNE | 18 4.6 262 491 2.5 154.0 3.8
4/26/22 - 1100 74.7 69.2 30 38.7 0.00 68.6 31.2 1.2 NE | 40 3.7 263 47 2.4 103.4 3.8
4/26/22 - 1000 69.6 65.0 33 36.9 0.00 68.6 31.2 1.0 ENE | 59 4.7 263 -119 3.3 94.7 3.8
4/26/22 - 0900 65.5 59.5 40 38.2 0.00 68.8 31.2 0.3 NNE | 31 2.0 264 -201 0.8 77.6 3.8
4/26/22 - 0800 59.6 52.8 54 39.2 0.00 69.0 31.2 0.2 NE | 47 1.3 266 -229 0.0 60.7 3.8
4/26/22 - 0700 52.8 50.5 56 36.4 0.00 69.2 31.3 0.3 S | 171 2.0 267 -280 0.0 47.6 3.8
4/26/22 - 0600 52.3 50.6 53 34.8 0.00 69.3 31.3 0.1 SSE | 162 0.9 267 -350 0.0 40.0 3.8
4/26/22 - 0500 54.0 51.6 50 35.0 0.00 69.6 31.3 0.3 SSE | 159 1.5 267 -254 0.0 42.9 3.8
4/26/22 - 0400 55.0 53.7 46 34.0 0.00 69.8 31.3 0.2 S | 171 1.2 267 -151 0.0 43.0 3.8
4/26/22 - 0300 55.1 53.0 45 33.5 0.00 70.4 31.3 0.7 SSE | 159 2.4 266 -134 0.0 44.7 3.8
4/26/22 - 0200 57.3 55.1 41 32.8 0.00 70.0 31.3 0.3 SSE | 161 1.5 266 -116 0.0 46.3 3.8
4/26/22 - 0100 60.0 56.8 37 32.3 0.00 70.0 31.3 0.4 S | 175 1.8 265 -169 0.6 49.3 3.8
4/26/22 - 0000 62.6 59.6 33 31.7 0.00 70.0 31.3 0.5 S | 190 3.1 264 -195 0.8 52.1 3.8
4/25/22 - 2300 67.5 62.1 27 30.0 0.00 70.2 31.3 0.4 S | 176 1.9 264 -248 0.7 58.1 3.8
4/25/22 - 2200 67.3 65.0 26 30.5 0.00 69.9 31.3 0.7 S | 190 2.9 264 -260 0.8 59.3 3.8
4/25/22 - 2100 72.9 67.0 20 26.6 0.00 69.7 31.3 0.5 S | 185 2.7 263 -265 0.8 66.4 3.8
4/25/22 - 2000 77.6 72.8 13 21.6 0.00 69.7 31.3 3.2 SW | 235 7.6 262 -291 3.8 78.3 3.8
4/25/22 - 1900 81.7 77.5 12 22.4 0.00 71.2 31.2 5.2 W | 259 10.9 262 -191 6.0 86.2 3.8
4/25/22 - 1800 85.5 81.6 12 25.1 0.00 71.0 31.2 5.7 WSW | 255 12.0 262 -36 6.6 94.1 3.8
4/25/22 - 1700 86.6 84.7 11 24.8 0.00 70.7 31.2 5.0 SW | 234 9.9 261 134 5.4 101.7 3.8
4/25/22 - 1600 88.2 85.6 11 25.5 0.00 70.7 31.2 4.7 SSW | 192 10.3 262 351 5.7 107.9 3.8
4/25/22 - 1500 90.6 87.2 9 22.5 0.00 67.7 31.1 1.9 ENE | 72 7.6 261 520 3.6 118.3 3.8
4/25/22 - 1400 89.7 86.4 9 21.4 0.00 68.4 31.1 1.9 NNE | 21 7.2 261 588 3.9 147.7 3.8
4/25/22 - 1300 87.8 84.7 11 26.3 0.00 67.7 31.1 2.0 W | 264 7.1 260 597 3.6 157.6 3.8
4/25/22 - 1200 87.4 82.6 14 29.4 0.00 67.5 31.1 1.9 SE | 125 7.6 260 566 4.0 155.3 3.8
4/25/22 - 1100 84.2 79.5 17 33.2 0.00 67.6 31.1 1.0 NNE | 33 3.7 261 492 2.3 120.3 3.8
4/25/22 - 1000 80.6 76.2 20 33.2 0.00 67.8 31.1 0.8 NNE | 31 3.8 261 232 2.0 114.7 3.8
4/25/22 - 0900 76.6 62.6 35 38.9 0.00 67.9 31.2 0.2 NNE | 31 1.4 262 -58 0.1 98.8 3.8
4/25/22 - 0800 62.7 52.1 48 36.9 0.00 68.1 31.1 0.2 NNE | 27 1.5 264 -168 0.0 54.5 3.8
4/25/22 - 0700 52.0 50.0 53 34.2 0.00 68.3 31.2 0.1 S | 184 0.9 267 -197 0.0 42.9 3.8
4/25/22 - 0600 51.9 50.5 52 34.1 0.00 68.6 31.2 0.3 S | 180 1.5 267 -216 0.7 41.2 3.8
4/25/22 - 0500 53.2 51.6 50 34.3 0.00 68.7 31.2 0.1 S | 182 1.3 267 -215 0.0 42.6 3.8
4/25/22 - 0400 54.2 53.1 48 34.4 0.00 68.8 31.3 0.3 S | 175 1.7 267 -219 0.0 43.3 3.8
4/25/22 - 0300 56.1 53.8 46 34.4 0.00 69.0 31.2 0.5 S | 180 2.2 267 -224 0.6 45.4 3.8
4/25/22 - 0200 59.0 55.9 42 34.1 0.00 69.3 31.3 0.7 SSE | 162 2.4 266 -200 1.3 47.8 3.8
4/25/22 - 0100 60.6 58.3 38 33.6 0.00 69.1 31.3 0.9 SE | 146 3.0 266 -186 1.8 50.6 3.8
4/25/22 - 0000 66.6 59.6 31 30.8 0.00 69.1 31.2 1.0 SSE | 166 3.6 264 -209 1.1 58.0 3.8
4/24/22 - 2300 67.5 66.3 22 26.9 0.00 69.0 31.2 3.7 SSW | 209 7.5 263 -231 4.1 59.0 3.8
4/24/22 - 2200 68.0 66.5 22 27.5 0.00 68.9 31.2 3.2 SSW | 199 6.8 263 -224 3.0 58.7 3.8
4/24/22 - 2100 70.9 67.7 21 28.0 0.00 69.0 31.2 2.5 SSW | 206 5.7 263 -212 2.5 65.0 3.8
4/24/22 - 2000 74.7 70.9 18 27.0 0.00 68.6 31.2 4.0 SW | 217 10.1 263 -200 5.6 74.1 3.8
4/24/22 - 1900 83.1 74.5 15 26.2 0.00 68.5 31.2 5.5 WSW | 242 13.1 262 -146 6.5 85.4 3.8
4/24/22 - 1800 85.8 83.1 9 20.5 0.00 68.4 31.1 1.6 N | 359 7.5 262 -88 3.6 90.4 3.8
4/24/22 - 1700 86.8 84.6 10 22.0 0.00 67.8 31.1 1.7 NW | 324 7.7 262 101 6.1 95.2 3.8
4/24/22 - 1600 86.3 84.8 10 23.0 0.00 67.6 31.0 1.8 NNW | 347 11.2 261 244 6.1 102.7 3.8
4/24/22 - 1500 85.8 83.6 11 23.2 0.00 67.1 31.0 2.3 NNW | 348 8.8 262 321 6.0 106.9 3.8
4/24/22 - 1400 84.7 82.0 11 23.2 0.00 67.0 31.0 2.6 NNE | 15 9.8 261 354 4.8 115.6 3.8
4/24/22 - 1300 83.6 79.9 12 25.0 0.00 66.8 31.0 3.0 NNE | 13 16.6 261 365 6.3 114.6 3.8
4/24/22 - 1200 80.4 76.8 14 25.8 0.00 66.8 31.0 3.6 NNE | 14 11.1 262 361 5.8 106.6 3.8
4/24/22 - 1100 77.5 74.3 15 25.5 0.00 67.2 31.0 4.4 N | 11 15.0 262 322 6.2 82.9 3.8
4/24/22 - 1000 74.4 69.9 21 30.0 0.00 64.7 31.0 3.6 N | 6 13.6 262 150 5.3 80.7 3.8
4/24/22 - 0900 69.9 65.9 26 31.4 0.00 66.8 31.0 3.4 N | 8 11.5 264 -177 4.2 74.4 3.8
4/24/22 - 0800 66.1 63.6 31 33.2 0.00 67.2 31.0 3.3 N | 8 9.8 264 -370 3.5 57.8 3.8
4/24/22 - 0700 63.7 59.3 36 33.6 0.00 68.6 31.1 1.5 NW | 305 8.0 266 -393 4.8 51.8 3.8
4/24/22 - 0600 59.5 50.9 50 35.5 0.00 67.5 31.1 1.4 SW | 215 5.6 268 -396 2.7 44.5 3.8
4/24/22 - 0500 52.8 51.0 56 36.7 0.00 67.8 31.1 1.0 S | 171 3.9 269 -410 1.5 41.5 3.8
4/24/22 - 0400 51.9 49.9 62 38.0 0.00 67.5 31.1 0.8 SSE | 161 3.4 269 -423 1.0 40.7 3.8
4/24/22 - 0300 53.8 50.8 58 38.0 0.00 67.6 31.1 0.4 SSE | 157 2.1 269 -409 1.0 42.4 3.8
4/24/22 - 0200 53.7 52.2 57 38.2 0.00 67.6 31.1 1.2 S | 170 3.5 269 -354 1.3 43.0 3.8
4/24/22 - 0100 55.2 52.7 55 38.3 0.00 68.3 31.1 0.4 S | 178 2.1 268 -344 0.6 45.9 3.8
4/24/22 - 0000 57.5 54.4 52 38.4 0.00 68.5 31.1 0.6 SSE | 157 1.7 268 -308 0.0 49.5 3.8
4/23/22 - 2300 63.3 57.1 42 36.9 0.00 68.4 31.1 1.2 S | 182 3.4 267 -310 1.2 53.2 3.8
4/23/22 - 2200 65.7 62.9 36 36.6 0.00 68.0 31.1 2.1 SSW | 202 4.3 266 -304 1.9 55.4 3.8
4/23/22 - 2100 66.8 65.2 35 37.6 0.00 68.2 31.1 2.4 WSW | 248 6.9 266 -293 3.9 57.3 3.8
4/23/22 - 2000 70.2 66.7 31 36.9 0.00 67.6 31.1 3.5 WSW | 242 9.5 264 -283 5.2 61.5 3.8
4/23/22 - 1900 75.6 70.1 26 36.0 0.00 66.8 31.1 4.3 WSW | 252 8.9 264 -160 6.4 67.1 3.8
4/23/22 - 1800 78.6 75.1 25 38.1 0.00 66.4 31.1 2.5 WNW | 297 9.1 264 -2 4.7 70.4 3.8
4/23/22 - 1700 81.0 78.7 18 32.4 0.00 66.4 31.0 2.2 NW | 310 9.6 263 131 5.3 73.3 3.8
4/23/22 - 1600 80.9 78.9 15 28.3 0.00 66.4 31.0 2.3 NNE | 12 9.2 262 251 4.6 79.0 3.8
4/23/22 - 1500 80.9 78.7 15 28.6 0.00 65.3 31.0 1.7 NNW | 337 7.8 263 377 4.6 85.6 3.8
4/23/22 - 1400 80.3 76.8 17 29.9 0.00 66.2 31.0 1.9 N | 357 6.7 262 459 3.8 94.8 3.8
4/23/22 - 1300 78.1 74.1 21 33.1 0.00 64.9 31.0 2.1 NNE | 16 8.1 262 446 3.6 99.7 3.8
4/23/22 - 1200 74.4 71.3 28 38.3 0.00 65.4 31.0 1.9 E | 95 5.6 263 404 3.8 100.0 3.8
4/23/22 - 1100 72.5 64.9 36 40.9 0.00 65.6 31.0 1.3 NE | 51 4.9 263 303 2.5 86.1 3.8
4/23/22 - 1000 65.6 59.3 50 43.8 0.00 66.3 31.0 0.8 E | 90 4.8 264 115 2.5 79.7 3.8
4/23/22 - 0900 59.3 52.7 66 44.3 0.00 66.1 31.0 0.8 ENE | 77 3.2 266 -116 2.3 67.9 3.8
4/23/22 - 0800 52.9 46.4 84 44.8 0.00 66.2 31.0 0.2 E | 95 2.7 269 -216 2.0 44.8 3.8
4/23/22 - 0700 46.6 44.5 86 41.3 0.00 66.7 31.1 0.4 SSE | 160 1.7 328 -244 0.0 39.0 3.8
4/23/22 - 0600 47.9 45.3 79 40.1 0.00 66.7 31.1 0.6 S | 184 2.6 308 -266 0.7 41.3 3.8
4/23/22 - 0500 48.0 45.4 80 40.8 0.00 68.0 31.1 1.1 SSE | 162 3.9 305 -276 0.8 41.3 3.8
4/23/22 - 0400 47.2 45.4 83 41.4 0.00 66.9 31.1 0.4 SSE | 154 1.9 308 -309 0.0 41.6 3.8
4/23/22 - 0300 48.1 46.9 82 42.1 0.00 67.6 31.2 0.6 SSE | 168 2.5 287 -311 1.0 42.2 3.8
4/23/22 - 0200 49.2 47.8 79 42.4 0.00 67.3 31.2 0.7 S | 173 2.2 277 -303 0.0 43.3 3.8
4/23/22 - 0100 49.6 47.9 78 42.3 0.00 67.5 31.2 0.8 SSE | 161 3.4 274 -295 1.5 43.8 3.8
4/23/22 - 0000 50.4 48.3 72 41.0 0.00 67.6 31.3 0.7 S | 170 2.0 274 -275 0.5 43.7 3.8
4/22/22 - 2300 51.8 50.3 73 42.9 0.00 66.6 31.3 0.8 S | 172 3.7 273 -311 1.3 46.5 3.8
4/22/22 - 2200 54.7 51.7 72 44.3 0.00 67.6 31.3 0.8 S | 176 2.7 273 -286 1.9 50.0 3.8
4/22/22 - 2100 58.0 54.1 64 44.0 0.00 67.7 31.3 1.2 SSW | 195 4.4 271 -257 2.1 53.2 3.8
4/22/22 - 2000 60.0 57.6 58 43.7 0.00 67.5 31.3 2.5 SW | 224 6.0 269 -259 3.1 57.4 3.8
4/22/22 - 1900 62.2 59.9 52 43.1 0.00 67.0 31.3 3.9 WSW | 243 7.7 268 -225 4.3 61.7 3.8
4/22/22 - 1800 63.3 61.4 48 42.0 0.00 67.0 31.3 5.8 SW | 231 10.7 267 -66 6.2 65.7 3.8
4/22/22 - 1700 64.7 61.6 46 42.0 0.00 67.3 31.3 6.3 WSW | 245 12.7 266 94 7.2 70.9 3.8
4/22/22 - 1600 64.5 62.4 47 42.6 0.00 67.7 31.3 6.8 WSW | 249 15.3 266 244 7.7 72.7 3.8
4/22/22 - 1500 64.6 61.9 46 41.8 0.00 66.7 31.3 6.3 WSW | 240 11.6 266 42 6.3 81.3 3.8
4/22/22 - 1400 65.5 62.5 44 41.7 0.00 66.9 31.3 6.0 WSW | 238 12.2 266 324 6.1 90.8 3.8
4/22/22 - 1300 64.4 61.8 44 40.6 0.00 67.0 31.3 4.2 SW | 232 10.3 266 332 5.4 94.0 3.8
4/22/22 - 1200 63.0 58.4 52 42.5 0.00 67.1 31.3 4.0 WSW | 245 12.3 266 213 7.1 87.0 3.8
4/22/22 - 1100 61.2 57.6 57 43.6 0.00 67.1 31.3 3.5 WSW | 248 9.4 266 109 4.8 77.3 3.8
4/22/22 - 1000 57.8 54.7 65 45.0 0.00 66.9 31.3 3.5 WSW | 241 8.6 267 72 4.1 71.0 3.8
4/22/22 - 0900 54.9 52.5 73 45.1 0.00 67.3 31.3 3.3 WSW | 238 6.9 269 -0 3.9 63.9 3.8
4/22/22 - 0800 52.6 50.3 78 44.8 0.00 66.8 31.4 2.6 WSW | 241 9.5 269 -155 3.8 50.0 3.8
4/22/22 - 0700 51.5 50.0 79 44.6 0.01 67.3 31.4 2.4 SW | 224 7.8 273 -203 4.0 49.1 3.8
4/22/22 - 0600 51.4 50.1 83 45.8 0.00 67.8 31.4 2.8 SW | 221 7.9 273 -210 4.7 49.3 3.8
4/22/22 - 0500 51.9 50.4 83 46.1 0.00 67.7 31.4 2.1 SW | 215 5.9 277 -215 3.3 50.7 3.8
4/22/22 - 0400 52.6 51.1 84 47.2 0.00 68.0 31.4 1.9 WSW | 238 6.4 275 -134 3.6 51.9 3.8
4/22/22 - 0300 53.1 52.2 89 49.5 0.00 68.4 31.4 2.8 SW | 225 6.8 287 -99 3.7 54.6 3.8
4/22/22 - 0200 53.6 52.9 90 50.5 0.01 68.4 31.4 0.3 S | 171 3.9 332 -96 1.5 55.6 3.8
4/22/22 - 0100 53.4 52.8 88 49.7 0.06 68.5 31.4 2.4 SW | 216 9.3 384 -60 4.5 56.0 3.8
4/22/22 - 0000 55.5 53.1 86 49.9 0.20 68.6 31.5 3.1 SW | 226 8.4 443 -49 5.8 56.9 3.8
4/21/22 - 2300 58.2 55.3 74 48.9 0.06 68.9 31.4 2.4 SSW | 199 5.3 468 -56 3.1 59.0 3.8
4/21/22 - 2200 58.6 57.8 69 48.0 0.00 68.3 31.4 3.3 SW | 234 7.5 269 -72 4.2 59.8 3.8
4/21/22 - 2100 59.4 58.4 66 47.6 0.00 68.2 31.4 3.1 SW | 220 7.6 269 -74 3.9 60.6 3.8
4/21/22 - 2000 60.8 59.1 63 47.2 0.00 68.0 31.4 3.4 SW | 231 7.9 269 -73 4.3 64.4 3.8
4/21/22 - 1900 61.6 60.4 60 46.9 0.00 68.3 31.4 4.5 SW | 228 8.6 268 -47 4.8 69.2 3.8
4/21/22 - 1800 63.7 61.0 57 46.9 0.00 67.9 31.4 5.4 SW | 228 12.4 268 27 6.5 75.2 3.8
4/21/22 - 1700 66.1 62.8 56 48.5 0.00 67.8 31.3 5.2 SSW | 210 12.1 267 179 6.1 84.6 3.8
4/21/22 - 1600 67.8 63.8 50 46.7 0.00 68.0 31.3 4.5 WSW | 241 11.3 267 227 6.3 87.5 3.8
4/21/22 - 1500 68.9 65.4 48 46.4 0.00 67.7 31.3 5.7 WSW | 244 12.2 266 446 6.5 97.5 3.8
4/21/22 - 1400 68.3 64.6 46 44.9 0.00 67.0 31.3 4.5 SW | 233 11.0 266 373 6.0 100.4 3.8
4/21/22 - 1300 68.0 64.7 45 44.3 0.00 67.7 31.4 3.5 WSW | 252 10.0 266 167 6.0 108.7 3.8
4/21/22 - 1200 67.6 64.8 42 42.5 0.00 66.6 31.3 3.5 SW | 230 10.5 266 306 5.8 115.1 3.8
4/21/22 - 1100 65.8 62.6 42 40.8 0.00 66.6 31.4 2.5 SW | 224 8.5 264 297 4.8 97.6 3.8
4/21/22 - 1000 64.2 58.3 52 43.2 0.00 67.6 31.4 1.1 N | 9 4.9 264 316 3.0 90.0 3.8
4/21/22 - 0900 58.5 51.2 68 44.4 0.00 67.3 31.4 0.7 ENE | 62 3.0 266 213 2.1 79.0 3.8
4/21/22 - 0800 51.3 45.6 88 45.2 0.00 68.1 31.4 0.9 WSW | 246 3.7 279 44 2.0 49.8 3.8
4/21/22 - 0700 45.8 43.3 91 41.8 0.00 68.6 31.4 0.3 SSE | 162 1.5 340 -15 0.0 38.2 3.8
4/21/22 - 0600 45.1 43.9 91 41.7 0.00 68.8 31.5 0.2 SSE | 162 1.2 345 -95 0.0 36.7 3.8
4/21/22 - 0500 45.3 44.2 90 42.1 0.00 68.6 31.5 0.6 S | 178 1.8 346 -197 0.0 38.0 3.8
4/21/22 - 0400 46.8 45.0 89 43.0 0.00 68.8 31.5 0.2 S | 180 1.7 339 -217 0.0 38.6 3.8
4/21/22 - 0300 48.1 46.2 87 43.4 0.00 69.0 31.6 0.3 SSE | 168 1.5 323 -342 0.0 40.7 3.8
4/21/22 - 0200 48.7 47.3 85 43.7 0.00 69.6 31.4 0.2 S | 182 1.8 298 -360 0.8 40.9 3.8
4/21/22 - 0100 50.7 48.1 80 43.8 0.00 69.0 31.6 0.5 S | 186 2.8 274 -165 1.6 45.6 3.8
4/21/22 - 0000 52.3 50.4 75 43.8 0.00 70.2 31.6 2.0 SSW | 207 7.2 272 -67 3.2 50.6 3.8
4/20/22 - 2300 53.8 52.2 69 43.0 0.00 69.6 31.6 3.1 SW | 235 6.7 270 -69 3.6 49.8 3.8
4/20/22 - 2200 55.9 53.6 62 42.1 0.00 69.0 31.6 1.5 SSW | 210 4.5 269 -67 2.5 51.7 3.8
4/20/22 - 2100 58.5 55.7 58 42.8 0.00 70.0 31.6 1.4 WSW | 245 4.3 269 -71 2.1 54.1 3.8
4/20/22 - 2000 61.9 58.5 47 40.0 0.00 69.2 31.7 1.7 S | 190 4.1 268 -69 2.4 65.5 3.8
4/20/22 - 1900 64.3 61.8 45 41.0 0.00 69.2 31.7 2.5 S | 179 6.4 266 -12 3.6 72.4 3.8
4/20/22 - 1800 67.1 63.8 48 45.2 0.00 69.5 31.7 3.7 SSE | 167 7.8 266 105 4.5 84.0 3.8
4/20/22 - 1700 68.7 66.7 47 46.8 0.00 69.1 31.6 3.2 SSE | 152 9.4 266 269 4.6 88.9 3.8
4/20/22 - 1600 68.7 65.8 48 46.7 0.00 69.6 31.6 3.1 ESE | 115 8.5 266 354 4.5 89.4 3.8
4/20/22 - 1500 66.9 65.8 51 47.5 0.00 69.2 31.6 2.8 ESE | 121 7.4 266 150 3.9 87.3 3.8
4/20/22 - 1400 67.4 65.5 51 48.0 0.00 69.4 31.6 2.5 ESE | 114 7.6 267 260 4.0 91.0 3.8
4/20/22 - 1300 66.6 64.7 52 47.6 0.00 69.8 31.6 2.2 E | 88 6.7 267 163 5.8 88.9 3.8
4/20/22 - 1200 67.1 64.4 51 46.8 0.00 69.4 31.6 2.9 ESE | 107 9.1 266 338 3.9 107.5 3.8
4/20/22 - 1100 66.7 61.8 54 47.3 0.00 69.2 31.7 3.1 ESE | 115 9.1 265 446 5.8 103.1 3.8
4/20/22 - 1000 63.8 59.7 62 48.6 0.00 68.8 31.6 2.3 ESE | 102 6.5 268 250 2.8 95.1 3.8
4/20/22 - 0900 60.7 56.5 72 49.6 0.00 70.0 31.7 1.8 SE | 128 4.8 269 172 3.3 81.7 3.8
4/20/22 - 0800 56.6 52.6 82 49.4 0.00 70.4 31.7 1.2 S | 182 3.7 271 29 1.9 63.4 3.8
4/20/22 - 0700 52.8 51.1 87 48.2 0.00 70.0 31.7 0.7 S | 188 1.9 271 -24 0.7 51.9 3.8
4/20/22 - 0600 56.0 52.6 82 48.9 0.00 70.3 31.7 0.8 SE | 134 2.3 271 -59 0.4 55.6 3.8
4/20/22 - 0500 56.8 55.8 78 49.4 0.00 70.1 31.7 0.9 SE | 139 3.1 272 -34 2.2 57.7 3.8
4/20/22 - 0400 56.7 56.4 77 49.5 0.00 70.2 31.7 1.6 ESE | 117 3.9 271 -18 2.7 58.1 3.8
4/20/22 - 0300 56.7 56.0 77 49.3 0.00 70.1 31.7 1.1 E | 101 3.7 271 -36 1.8 57.1 3.8
4/20/22 - 0200 57.2 56.5 78 50.0 0.00 69.8 31.8 1.7 ESE | 112 4.6 271 -25 2.9 59.7 3.8
4/20/22 - 0100 57.1 54.5 81 49.8 0.00 70.3 31.8 0.4 E | 90 2.6 271 -25 1.9 58.6 3.8
4/20/22 - 0000 56.8 54.4 78 48.9 0.00 70.9 31.7 0.0 ENE | 76 0.9 274 -58 0.0 54.6 3.8
4/19/22 - 2300 58.1 56.6 76 49.6 0.00 70.8 31.7 0.4 ENE | 59 2.5 271 -64 1.6 56.2 3.8
4/19/22 - 2200 61.6 58.0 70 49.7 0.00 71.0 31.7 0.8 NE | 55 2.5 270 -68 1.3 58.0 3.8
4/19/22 - 2100 63.9 61.4 60 48.8 0.00 71.2 31.7 0.7 ENE | 58 3.3 269 -70 1.4 61.3 3.8
4/19/22 - 2000 66.6 63.5 52 46.9 0.00 69.8 31.7 3.6 SSW | 209 7.3 267 -69 3.6 69.6 3.8
4/19/22 - 1900 70.7 66.5 45 47.2 0.00 69.5 31.7 3.8 SW | 234 8.0 266 9 4.7 77.7 3.8
4/19/22 - 1800 73.0 70.5 39 45.8 0.00 70.0 31.6 4.0 WSW | 244 9.9 266 163 5.8 82.5 3.8
4/19/22 - 1700 73.4 71.3 38 45.2 0.00 69.5 31.6 4.9 WSW | 240 12.2 265 299 6.1 89.0 3.8
4/19/22 - 1600 76.2 72.7 35 44.5 0.00 69.3 31.6 5.2 W | 269 13.0 264 453 6.8 93.7 3.8
4/19/22 - 1500 78.2 75.7 30 43.3 0.00 69.1 31.5 4.1 W | 264 12.6 264 540 6.9 103.6 3.8
4/19/22 - 1400 78.0 73.0 37 47.0 0.00 68.2 31.5 4.1 SSE | 166 11.7 264 593 6.3 116.3 3.8
4/19/22 - 1300 76.3 73.3 40 48.8 0.00 68.4 31.5 2.7 ENE | 63 6.9 264 597 4.5 130.7 3.8
4/19/22 - 1200 74.8 69.6 40 47.4 0.00 67.9 31.5 1.9 NNE | 28 6.5 264 556 4.2 129.5 3.8
4/19/22 - 1100 72.1 67.4 41 44.9 0.00 68.8 31.6 1.6 NNE | 29 5.0 264 484 4.5 103.9 3.8
4/19/22 - 1000 68.6 64.2 45 44.1 0.00 69.0 31.6 1.6 ENE | 61 6.1 264 366 3.7 93.9 3.8
4/19/22 - 0900 64.3 59.0 56 45.5 0.00 69.7 31.6 0.9 NE | 40 4.0 265 209 2.4 87.2 3.8
4/19/22 - 0800 59.1 55.9 67 46.5 0.00 69.5 31.6 0.3 ESE | 106 1.4 269 15 0.6 63.2 3.8
4/19/22 - 0700 56.0 55.1 72 46.4 0.00 69.6 31.7 0.1 SSE | 164 1.3 270 -22 0.0 54.7 3.8
4/19/22 - 0600 55.8 54.7 71 46.2 0.00 68.8 31.7 0.4 S | 169 1.8 270 -30 0.1 53.6 3.8
4/19/22 - 0500 56.2 55.4 70 45.9 0.00 69.6 31.7 0.4 S | 178 2.1 270 -36 0.0 51.6 3.8
4/19/22 - 0400 57.6 55.9 66 45.6 0.00 70.0 31.7 0.2 S | 185 1.4 269 -40 0.0 51.8 3.8
4/19/22 - 0300 59.4 57.4 63 45.8 0.00 69.0 31.7 0.2 ESE | 121 1.8 269 -47 0.4 55.0 3.8
4/19/22 - 0200 60.0 58.4 60 45.5 0.00 70.1 31.7 0.3 SE | 128 1.8 269 -41 0.0 54.7 3.8
4/19/22 - 0100 62.1 59.3 58 45.5 0.00 70.0 31.7 0.7 S | 186 3.2 268 -46 0.7 59.2 3.8
4/19/22 - 0000 63.7 62.1 52 45.0 0.00 69.0 31.6 0.8 ESE | 122 3.2 267 -43 1.6 61.8 3.8
4/18/22 - 2300 66.4 63.5 46 44.3 0.00 69.2 31.7 0.8 WSW | 244 3.9 266 -42 2.0 66.3 3.8
4/18/22 - 2200 66.5 65.4 45 44.3 0.00 69.0 31.6 1.5 SW | 235 4.9 266 -37 2.4 66.0 3.8
4/18/22 - 2100 66.4 65.3 46 44.6 0.00 69.6 31.6 1.7 SSW | 209 4.9 266 -40 2.4 65.5 3.8
4/18/22 - 2000 69.3 66.1 44 44.8 0.00 69.8 31.6 2.0 SW | 229 5.7 266 -48 3.3 72.6 3.8
4/18/22 - 1900 73.2 69.0 42 46.2 0.00 69.3 31.6 1.5 WNW | 289 9.0 266 -11 4.6 79.5 3.8
4/18/22 - 1800 76.1 73.3 29 40.6 0.00 68.7 31.6 4.5 WSW | 255 9.9 264 97 5.3 88.2 3.8
4/18/22 - 1700 80.0 75.3 29 42.4 0.00 68.6 31.5 3.4 W | 263 10.1 264 184 5.4 97.2 3.8
4/18/22 - 1600 80.6 78.6 21 35.9 0.00 68.3 31.5 4.6 WSW | 247 12.3 263 355 6.7 104.7 3.8
4/18/22 - 1500 82.2 79.5 21 36.8 0.00 68.9 31.5 5.2 SW | 234 10.6 263 470 5.9 113.3 3.8
4/18/22 - 1400 83.7 80.6 27 44.6 0.00 68.5 31.5 2.5 SW | 222 8.4 263 589 4.9 140.0 3.8
4/18/22 - 1300 83.4 75.9 30 45.1 0.00 66.9 31.5 1.2 N | 9 5.3 263 611 3.4 139.3 3.8
4/18/22 - 1200 77.1 71.7 37 46.6 0.00 67.3 31.4 1.4 NE | 39 4.7 264 563 3.1 138.8 3.8
4/18/22 - 1100 72.9 67.5 45 48.2 0.00 66.0 31.5 1.1 NE | 38 4.9 264 433 3.0 101.6 3.8
4/18/22 - 1000 67.5 62.5 55 48.5 0.00 67.2 31.5 1.2 NE | 52 4.0 266 112 3.2 90.0 3.8
4/18/22 - 0900 62.9 56.5 67 48.4 0.00 68.0 31.5 0.6 N | 6 3.0 266 -70 2.3 79.0 3.8
4/18/22 - 0800 56.5 50.9 82 48.0 0.00 67.6 31.6 0.1 NNW | 344 1.2 269 -240 0.9 52.2 3.8
4/18/22 - 0700 51.1 50.0 86 46.5 0.00 68.3 31.6 0.4 S | 179 1.7 294 -299 0.0 45.4 3.8
4/18/22 - 0600 51.0 50.0 86 46.5 0.00 69.1 31.6 0.3 SSE | 166 1.8 292 -308 0.0 45.8 3.8
4/18/22 - 0500 51.0 49.8 86 46.3 0.00 68.2 31.6 0.3 S | 175 1.7 286 -321 0.0 45.2 3.8
4/18/22 - 0400 51.0 49.7 84 45.6 0.00 69.1 31.6 0.4 S | 179 1.8 282 -340 0.0 42.5 3.8
4/18/22 - 0300 52.9 50.4 80 45.6 0.00 68.9 31.6 0.3 S | 174 1.7 270 -318 0.0 44.4 3.8
4/18/22 - 0200 53.8 52.7 76 46.0 0.00 68.6 31.6 0.7 SSW | 201 2.6 274 -57 0.0 44.4 3.8
4/18/22 - 0100 53.9 53.2 76 46.1 0.00 69.3 31.7 0.5 S | 174 2.0 273 -59 0.0 45.8 3.8
4/18/22 - 0000 55.7 53.8 71 45.7 0.00 68.6 31.6 0.6 S | 182 3.2 272 -59 0.0 48.1 3.8
4/17/22 - 2300 57.1 55.6 68 45.9 0.00 69.8 31.6 0.6 S | 176 2.1 270 -59 0.6 49.1 3.8
4/17/22 - 2200 60.5 56.5 62 45.8 0.00 69.4 31.7 0.8 S | 189 3.6 269 -71 0.9 56.8 3.8
4/17/22 - 2100 63.3 60.3 57 46.2 0.00 69.2 31.6 2.6 SW | 218 7.2 268 -79 3.4 63.1 3.8
4/17/22 - 2000 69.6 63.3 51 47.8 0.00 68.4 31.6 3.3 WSW | 241 6.4 268 -81 3.8 73.6 3.8
4/17/22 - 1900 74.1 69.4 44 49.0 0.00 69.4 31.6 2.8 W | 264 8.9 266 -2 4.4 82.8 3.8
4/17/22 - 1800 75.8 73.5 40 48.5 0.00 67.6 31.6 3.9 SW | 236 9.7 266 156 4.9 88.9 3.8
4/17/22 - 1700 77.8 74.8 39 49.4 0.00 67.7 31.5 4.2 SW | 236 9.6 265 317 5.8 94.1 3.8
4/17/22 - 1600 78.1 75.5 39 50.5 0.00 68.2 31.5 4.1 WSW | 257 10.6 266 445 5.7 102.8 3.8
4/17/22 - 1500 80.5 77.0 36 49.1 0.00 67.3 31.4 3.4 SW | 227 11.0 265 536 6.2 107.9 3.8
4/17/22 - 1400 79.4 73.5 33 45.3 0.00 66.6 31.4 1.7 NNE | 26 5.9 264 593 4.0 125.5 3.8
4/17/22 - 1300 77.6 71.1 36 44.7 0.00 67.4 31.4 2.0 W | 261 7.7 264 608 4.1 133.8 3.8
4/17/22 - 1200 72.2 68.3 42 45.2 0.00 66.7 31.4 1.6 WNW | 292 6.5 264 570 4.5 127.3 3.8
4/17/22 - 1100 69.1 63.4 47 46.2 0.00 67.3 31.4 0.9 NNE | 28 4.2 264 421 3.0 98.3 3.8
4/17/22 - 1000 63.9 60.6 56 46.3 0.00 66.8 31.5 1.7 E | 93 5.6 266 180 3.4 86.6 3.8
4/17/22 - 0900 60.8 57.4 65 47.3 0.00 66.6 31.5 1.8 E | 83 5.3 266 -16 3.8 77.5 3.8
4/17/22 - 0800 57.7 54.1 78 48.7 0.00 66.8 31.5 1.2 ENE | 76 5.1 269 -202 2.7 58.9 3.8
4/17/22 - 0700 54.3 53.5 82 48.5 0.00 66.7 31.5 0.7 E | 82 3.2 273 -246 1.6 56.6 3.8
4/17/22 - 0600 54.2 53.5 82 48.6 0.00 67.1 31.6 0.5 NE | 56 3.5 273 -250 2.2 57.2 3.8
4/17/22 - 0500 53.8 53.2 84 48.7 0.00 67.6 31.5 1.2 E | 92 3.8 273 -246 2.6 57.6 3.8
4/17/22 - 0400 53.6 51.7 87 49.0 0.00 67.8 31.5 0.9 E | 99 3.8 281 -235 1.9 56.8 3.8
4/17/22 - 0300 51.9 49.6 90 47.5 0.00 69.0 31.6 0.2 S | 170 1.0 307 -240 0.0 52.2 3.8
4/17/22 - 0200 50.4 49.2 89 46.5 0.00 68.5 31.6 0.7 S | 179 2.4 332 -261 0.0 43.1 3.8
4/17/22 - 0100 52.8 49.8 85 46.8 0.00 67.8 31.6 0.1 SSE | 149 1.2 320 -201 0.8 46.1 3.8
4/17/22 - 0000 53.7 52.1 83 47.7 0.00 68.6 31.6 0.7 S | 176 2.5 290 -52 0.6 48.0 3.8
4/16/22 - 2300 55.7 53.6 78 48.2 0.00 67.6 31.6 1.4 SSW | 199 4.2 274 -63 2.3 51.7 3.8
4/16/22 - 2200 57.2 55.4 74 48.2 0.00 68.8 31.6 2.3 SW | 222 6.0 271 -67 3.2 54.9 3.8
4/16/22 - 2100 57.9 56.9 72 48.3 0.00 68.7 31.6 3.1 SW | 230 6.9 270 -69 4.2 58.1 3.8
4/16/22 - 2000 62.4 57.8 66 47.9 0.00 67.9 31.6 4.0 SW | 234 8.3 269 -68 5.1 63.8 3.8
4/16/22 - 1900 65.5 62.3 57 48.4 0.00 67.7 31.6 2.3 WNW | 287 7.2 268 10 4.1 71.0 3.8
4/16/22 - 1800 65.4 63.3 57 48.6 0.00 67.2 31.6 4.4 WSW | 252 11.1 267 173 5.8 73.8 3.8
4/16/22 - 1700 65.9 62.4 57 48.5 0.00 67.2 31.5 5.9 WSW | 237 12.1 267 211 7.1 83.1 3.8
4/16/22 - 1600 68.8 65.4 50 47.6 0.00 67.9 31.5 5.9 WSW | 249 13.8 266 464 6.3 92.8 3.8
4/16/22 - 1500 69.4 67.4 45 46.6 0.00 66.8 31.5 5.1 W | 263 12.9 266 522 7.1 98.2 3.8
4/16/22 - 1400 68.4 64.4 49 46.7 0.00 66.8 31.5 4.5 SW | 217 13.0 266 443 8.5 108.6 3.8
4/16/22 - 1300 67.1 64.7 48 46.1 0.00 67.0 31.5 3.1 WSW | 258 9.7 266 460 5.7 113.2 3.8
4/16/22 - 1200 66.0 61.8 51 45.4 0.00 67.3 31.5 1.6 NW | 304 7.5 265 226 4.3 101.1 3.8
4/16/22 - 1100 64.6 60.9 52 45.2 0.00 66.7 31.5 2.3 W | 262 7.5 265 298 4.8 96.0 3.8
4/16/22 - 1000 61.5 57.0 60 45.3 0.00 67.6 31.5 2.2 SSE | 165 6.5 266 132 3.9 84.7 3.8
4/16/22 - 0900 57.3 53.1 69 44.8 0.00 67.3 31.6 3.6 SSW | 208 7.0 267 -85 4.0 74.4 3.8
4/16/22 - 0800 55.2 50.8 77 46.0 0.00 67.6 31.6 1.9 SSW | 193 7.1 270 -240 3.9 61.1 3.8
4/16/22 - 0700 51.9 50.2 83 45.8 0.00 67.2 31.6 0.5 SSW | 194 2.3 275 -308 1.5 50.2 3.8
4/16/22 - 0600 52.9 51.0 82 46.6 0.00 67.2 31.6 1.6 S | 176 4.3 273 -343 2.4 52.4 3.8
4/16/22 - 0500 53.9 52.8 80 47.4 0.00 67.8 31.6 1.6 SSE | 164 4.7 273 -343 2.1 56.1 3.8
4/16/22 - 0400 54.4 53.5 80 47.9 0.00 68.0 31.6 1.2 SSE | 147 3.6 272 -313 1.6 56.0 3.8
4/16/22 - 0300 53.6 49.4 86 47.4 0.00 67.8 31.6 0.8 S | 191 2.7 272 -284 0.6 53.6 3.8
4/16/22 - 0200 51.4 49.8 85 46.2 0.00 68.2 31.6 0.8 S | 190 2.0 286 -137 0.7 45.3 3.8
4/16/22 - 0100 53.3 50.9 83 47.4 0.00 68.5 31.7 0.5 S | 181 2.5 276 -47 0.0 46.8 3.8
4/16/22 - 0000 54.1 53.0 78 46.9 0.00 68.2 31.7 0.4 SE | 136 1.8 273 -57 0.0 46.5 3.8
4/15/22 - 2300 55.6 53.9 74 46.4 0.00 68.2 31.7 0.4 SSW | 195 1.9 271 -59 0.1 48.6 3.8
4/15/22 - 2200 58.3 55.5 67 46.2 0.00 67.8 31.6 0.2 SE | 124 2.0 269 -64 0.4 52.9 3.8
4/15/22 - 2100 63.5 58.4 55 44.8 0.00 67.5 31.6 0.3 ENE | 62 2.5 268 -72 1.7 59.8 3.8
4/15/22 - 2000 67.3 63.4 46 43.9 0.00 67.5 31.6 0.5 NW | 310 5.2 266 -74 3.8 68.1 3.8
4/15/22 - 1900 70.4 66.8 42 44.1 0.00 67.2 31.6 3.8 WSW | 243 8.4 266 3 4.6 77.8 3.8
4/15/22 - 1800 73.4 69.8 37 44.3 0.00 67.4 31.5 3.9 W | 259 8.9 265 159 5.3 83.5 3.8
4/15/22 - 1700 73.4 72.1 37 44.6 0.00 67.8 31.5 4.8 SW | 232 9.8 264 315 5.6 88.4 3.8
4/15/22 - 1600 73.7 71.3 40 46.4 0.00 66.7 31.5 5.5 SW | 215 11.3 265 449 6.5 92.9 3.8
4/15/22 - 1500 75.1 71.8 38 46.4 0.00 66.2 31.4 4.8 WSW | 239 12.2 264 536 6.7 101.6 3.8
4/15/22 - 1400 74.8 71.7 34 43.4 0.00 66.5 31.4 3.1 SW | 230 10.8 264 586 5.3 120.6 3.8
4/15/22 - 1300 73.2 68.6 36 43.0 0.00 66.7 31.4 1.9 WSW | 242 6.1 264 596 4.2 126.4 3.8
4/15/22 - 1200 71.2 65.8 38 42.0 0.00 65.6 31.4 1.8 WNW | 301 7.5 264 526 5.1 120.0 3.8
4/15/22 - 1100 67.0 62.2 46 43.3 0.00 66.4 31.4 1.0 NNE | 17 3.6 264 351 3.0 94.6 3.8
4/15/22 - 1000 62.3 58.0 57 45.0 0.00 66.2 31.5 1.3 N | 10 3.7 265 326 2.8 79.8 3.8
4/15/22 - 0900 58.2 54.4 66 44.9 0.00 66.4 31.5 0.9 NNW | 328 3.7 266 209 2.4 71.1 3.8
4/15/22 - 0800 54.5 45.7 79 43.2 0.00 66.9 31.5 0.3 SW | 216 2.3 270 55 1.4 47.4 3.8
4/15/22 - 0700 45.8 44.5 86 41.2 0.00 67.6 31.6 0.2 SSE | 160 1.3 308 -24 0.0 38.2 3.8
4/15/22 - 0600 46.1 45.0 85 41.3 0.00 66.7 31.6 0.2 S | 170 1.1 294 -46 0.0 36.9 3.8
4/15/22 - 0500 46.3 45.4 81 40.4 0.00 67.5 31.6 0.4 SSE | 162 1.2 277 -64 0.0 36.7 3.8
4/15/22 - 0400 47.0 45.9 80 40.6 0.00 68.3 31.6 0.3 S | 176 1.8 274 -189 0.0 37.9 3.8
4/15/22 - 0300 47.7 46.6 77 40.3 0.00 67.4 31.6 0.5 SSE | 167 2.3 274 -236